sensor_id;sensor_type;location;lat;lon;timestamp;temperature;humidity
35607;DHT22;21729;58.392;15.656;2023-04-25T00:00:59;5.90;1.00
35607;DHT22;21729;58.392;15.656;2023-04-25T00:03:27;5.90;1.00
35607;DHT22;21729;58.392;15.656;2023-04-25T00:05:55;5.90;1.00
35607;DHT22;21729;58.392;15.656;2023-04-25T00:08:22;5.90;1.00
35607;DHT22;21729;58.392;15.656;2023-04-25T00:10:49;5.90;1.00
35607;DHT22;21729;58.392;15.656;2023-04-25T00:13:16;5.90;1.00
35607;DHT22;21729;58.392;15.656;2023-04-25T00:15:46;5.90;1.00
35607;DHT22;21729;58.392;15.656;2023-04-25T00:18:13;5.80;1.00
35607;DHT22;21729;58.392;15.656;2023-04-25T00:20:40;5.80;1.00
35607;DHT22;21729;58.392;15.656;2023-04-25T00:23:12;5.90;1.00
35607;DHT22;21729;58.392;15.656;2023-04-25T00:25:43;5.90;1.00
35607;DHT22;21729;58.392;15.656;2023-04-25T00:28:10;5.90;1.00
35607;DHT22;21729;58.392;15.656;2023-04-25T00:30:37;5.90;1.00
35607;DHT22;21729;58.392;15.656;2023-04-25T00:33:06;5.80;1.00
35607;DHT22;21729;58.392;15.656;2023-04-25T00:35:33;5.80;1.00
35607;DHT22;21729;58.392;15.656;2023-04-25T00:38:00;5.80;1.00
35607;DHT22;21729;58.392;15.656;2023-04-25T00:40:28;5.70;1.00
35607;DHT22;21729;58.392;15.656;2023-04-25T00:42:55;5.70;1.00
35607;DHT22;21729;58.392;15.656;2023-04-25T00:45:25;5.80;1.00
35607;DHT22;21729;58.392;15.656;2023-04-25T00:47:54;5.80;1.00
35607;DHT22;21729;58.392;15.656;2023-04-25T00:50:23;5.70;1.00
35607;DHT22;21729;58.392;15.656;2023-04-25T00:52:51;5.70;1.00
35607;DHT22;21729;58.392;15.656;2023-04-25T00:55:19;5.70;1.00
35607;DHT22;21729;58.392;15.656;2023-04-25T00:57:47;5.60;1.00
35607;DHT22;21729;58.392;15.656;2023-04-25T01:00:14;5.60;1.00
35607;DHT22;21729;58.392;15.656;2023-04-25T01:02:41;5.70;1.00
35607;DHT22;21729;58.392;15.656;2023-04-25T01:05:10;5.60;1.00
35607;DHT22;21729;58.392;15.656;2023-04-25T01:07:39;5.60;1.00
35607;DHT22;21729;58.392;15.656;2023-04-25T01:10:07;5.60;1.00
35607;DHT22;21729;58.392;15.656;2023-04-25T01:12:35;5.50;1.00
35607;DHT22;21729;58.392;15.656;2023-04-25T01:15:02;5.50;1.00
35607;DHT22;21729;58.392;15.656;2023-04-25T01:17:29;5.50;1.00
35607;DHT22;21729;58.392;15.656;2023-04-25T01:19:57;5.40;1.00
35607;DHT22;21729;58.392;15.656;2023-04-25T01:22:25;5.60;1.00
35607;DHT22;21729;58.392;15.656;2023-04-25T01:24:52;5.60;1.00
35607;DHT22;21729;58.392;15.656;2023-04-25T01:27:20;5.60;1.00
35607;DHT22;21729;58.392;15.656;2023-04-25T01:29:49;5.50;1.00
35607;DHT22;21729;58.392;15.656;2023-04-25T01:32:17;5.50;1.00
35607;DHT22;21729;58.392;15.656;2023-04-25T01:34:45;5.50;1.00
35607;DHT22;21729;58.392;15.656;2023-04-25T01:37:12;5.50;1.00
35607;DHT22;21729;58.392;15.656;2023-04-25T01:39:41;5.50;1.00
35607;DHT22;21729;58.392;15.656;2023-04-25T01:42:08;5.50;1.00
35607;DHT22;21729;58.392;15.656;2023-04-25T01:44:36;5.50;1.00
35607;DHT22;21729;58.392;15.656;2023-04-25T01:47:03;5.50;1.00
35607;DHT22;21729;58.392;15.656;2023-04-25T01:49:30;5.40;1.00
35607;DHT22;21729;58.392;15.656;2023-04-25T01:51:58;5.50;1.00
35607;DHT22;21729;58.392;15.656;2023-04-25T01:54:25;5.50;1.00
35607;DHT22;21729;58.392;15.656;2023-04-25T01:56:57;5.50;1.00
35607;DHT22;21729;58.392;15.656;2023-04-25T01:59:25;5.60;1.00
35607;DHT22;21729;58.392;15.656;2023-04-25T02:01:52;5.60;1.00
35607;DHT22;21729;58.392;15.656;2023-04-25T02:04:19;5.50;1.00
35607;DHT22;21729;58.392;15.656;2023-04-25T02:06:46;5.50;1.00
35607;DHT22;21729;58.392;15.656;2023-04-25T02:09:14;5.60;1.00
35607;DHT22;21729;58.392;15.656;2023-04-25T02:11:41;5.50;1.00
35607;DHT22;21729;58.392;15.656;2023-04-25T02:14:09;5.50;1.00
35607;DHT22;21729;58.392;15.656;2023-04-25T02:16:37;5.50;1.00
35607;DHT22;21729;58.392;15.656;2023-04-25T02:19:05;5.40;1.00
35607;DHT22;21729;58.392;15.656;2023-04-25T02:21:32;5.50;1.00
35607;DHT22;21729;58.392;15.656;2023-04-25T02:24:01;5.50;1.00
35607;DHT22;21729;58.392;15.656;2023-04-25T02:26:29;5.40;1.00
35607;DHT22;21729;58.392;15.656;2023-04-25T02:28:56;5.40;1.00
35607;DHT22;21729;58.392;15.656;2023-04-25T02:31:25;5.50;1.00
35607;DHT22;21729;58.392;15.656;2023-04-25T02:33:52;5.50;1.00
35607;DHT22;21729;58.392;15.656;2023-04-25T02:36:19;5.50;1.00
35607;DHT22;21729;58.392;15.656;2023-04-25T02:38:46;5.40;1.00
35607;DHT22;21729;58.392;15.656;2023-04-25T02:41:13;5.40;1.00
35607;DHT22;21729;58.392;15.656;2023-04-25T02:43:40;5.50;1.00
35607;DHT22;21729;58.392;15.656;2023-04-25T02:46:08;5.40;1.00
35607;DHT22;21729;58.392;15.656;2023-04-25T02:48:36;5.40;1.00
35607;DHT22;21729;58.392;15.656;2023-04-25T02:51:03;5.40;1.00
35607;DHT22;21729;58.392;15.656;2023-04-25T02:53:31;5.40;1.00
35607;DHT22;21729;58.392;15.656;2023-04-25T02:55:58;5.40;1.00
35607;DHT22;21729;58.392;15.656;2023-04-25T02:58:25;5.40;1.00
35607;DHT22;21729;58.392;15.656;2023-04-25T03:00:52;5.40;1.00
35607;DHT22;21729;58.392;15.656;2023-04-25T03:03:19;5.40;1.00
35607;DHT22;21729;58.392;15.656;2023-04-25T03:05:49;5.30;1.00
35607;DHT22;21729;58.392;15.656;2023-04-25T03:08:16;5.30;1.00
35607;DHT22;21729;58.392;15.656;2023-04-25T03:10:44;5.30;1.00
35607;DHT22;21729;58.392;15.656;2023-04-25T03:13:11;5.20;1.00
35607;DHT22;21729;58.392;15.656;2023-04-25T03:15:38;5.30;1.00
35607;DHT22;21729;58.392;15.656;2023-04-25T03:18:06;5.20;1.00
35607;DHT22;21729;58.392;15.656;2023-04-25T03:20:33;5.20;1.00
35607;DHT22;21729;58.392;15.656;2023-04-25T03:23:04;5.30;1.00
35607;DHT22;21729;58.392;15.656;2023-04-25T03:25:32;5.30;1.00
35607;DHT22;21729;58.392;15.656;2023-04-25T03:28:06;5.20;1.00
35607;DHT22;21729;58.392;15.656;2023-04-25T03:30:33;5.20;1.00
35607;DHT22;21729;58.392;15.656;2023-04-25T03:33:00;5.20;1.00
35607;DHT22;21729;58.392;15.656;2023-04-25T03:35:27;5.20;1.00
35607;DHT22;21729;58.392;15.656;2023-04-25T03:37:55;5.10;1.00
35607;DHT22;21729;58.392;15.656;2023-04-25T03:40:23;5.00;1.00
35607;DHT22;21729;58.392;15.656;2023-04-25T03:42:51;5.10;1.00
35607;DHT22;21729;58.392;15.656;2023-04-25T03:45:18;5.10;1.00
35607;DHT22;21729;58.392;15.656;2023-04-25T03:47:45;5.10;1.00
35607;DHT22;21729;58.392;15.656;2023-04-25T03:50:12;5.10;1.00
35607;DHT22;21729;58.392;15.656;2023-04-25T03:52:39;5.10;1.00
35607;DHT22;21729;58.392;15.656;2023-04-25T03:55:07;5.10;1.00
35607;DHT22;21729;58.392;15.656;2023-04-25T03:57:36;5.20;1.00
35607;DHT22;21729;58.392;15.656;2023-04-25T04:00:04;5.20;1.00
35607;DHT22;21729;58.392;15.656;2023-04-25T04:02:32;5.20;1.00
35607;DHT22;21729;58.392;15.656;2023-04-25T04:05:00;5.10;1.00
35607;DHT22;21729;58.392;15.656;2023-04-25T04:07:28;5.20;1.00
35607;DHT22;21729;58.392;15.656;2023-04-25T04:09:55;5.10;1.00
35607;DHT22;21729;58.392;15.656;2023-04-25T04:12:22;5.10;1.00
35607;DHT22;21729;58.392;15.656;2023-04-25T04:14:51;5.10;1.00
35607;DHT22;21729;58.392;15.656;2023-04-25T04:17:19;5.10;1.00
35607;DHT22;21729;58.392;15.656;2023-04-25T04:19:46;5.20;1.00
35607;DHT22;21729;58.392;15.656;2023-04-25T04:22:14;5.10;1.00
35607;DHT22;21729;58.392;15.656;2023-04-25T04:24:41;5.10;1.00
35607;DHT22;21729;58.392;15.656;2023-04-25T04:27:10;5.10;1.00
35607;DHT22;21729;58.392;15.656;2023-04-25T04:29:38;5.10;1.00
35607;DHT22;21729;58.392;15.656;2023-04-25T04:32:07;5.00;1.00
35607;DHT22;21729;58.392;15.656;2023-04-25T04:34:36;5.00;1.00
35607;DHT22;21729;58.392;15.656;2023-04-25T04:37:06;5.00;1.00
35607;DHT22;21729;58.392;15.656;2023-04-25T04:39:36;5.10;1.00
35607;DHT22;21729;58.392;15.656;2023-04-25T04:42:04;5.10;1.00
35607;DHT22;21729;58.392;15.656;2023-04-25T04:44:32;5.00;1.00
35607;DHT22;21729;58.392;15.656;2023-04-25T04:47:01;5.10;1.00
35607;DHT22;21729;58.392;15.656;2023-04-25T04:49:34;5.00;1.00
35607;DHT22;21729;58.392;15.656;2023-04-25T04:52:03;5.10;1.00
35607;DHT22;21729;58.392;15.656;2023-04-25T04:54:34;5.10;1.00
35607;DHT22;21729;58.392;15.656;2023-04-25T04:57:04;5.10;1.00
35607;DHT22;21729;58.392;15.656;2023-04-25T04:59:32;5.10;1.00
35607;DHT22;21729;58.392;15.656;2023-04-25T05:02:01;5.10;1.00
35607;DHT22;21729;58.392;15.656;2023-04-25T05:04:28;5.10;1.00
35607;DHT22;21729;58.392;15.656;2023-04-25T05:06:59;5.10;1.00
35607;DHT22;21729;58.392;15.656;2023-04-25T05:09:27;5.10;1.00
35607;DHT22;21729;58.392;15.656;2023-04-25T05:11:54;5.10;1.00
35607;DHT22;21729;58.392;15.656;2023-04-25T05:14:24;5.10;1.00
35607;DHT22;21729;58.392;15.656;2023-04-25T05:16:52;5.10;1.00
35607;DHT22;21729;58.392;15.656;2023-04-25T05:19:20;5.10;1.00
35607;DHT22;21729;58.392;15.656;2023-04-25T05:21:48;5.10;1.00
35607;DHT22;21729;58.392;15.656;2023-04-25T05:24:17;5.20;1.00
35607;DHT22;21729;58.392;15.656;2023-04-25T05:26:45;5.30;1.00
35607;DHT22;21729;58.392;15.656;2023-04-25T05:29:14;5.30;1.00
35607;DHT22;21729;58.392;15.656;2023-04-25T05:31:43;5.40;1.00
35607;DHT22;21729;58.392;15.656;2023-04-25T05:34:12;5.30;1.00
35607;DHT22;21729;58.392;15.656;2023-04-25T05:36:40;5.30;1.00
35607;DHT22;21729;58.392;15.656;2023-04-25T05:39:10;5.30;1.00
35607;DHT22;21729;58.392;15.656;2023-04-25T05:41:46;5.40;1.00
35607;DHT22;21729;58.392;15.656;2023-04-25T05:44:14;5.40;1.00
35607;DHT22;21729;58.392;15.656;2023-04-25T05:46:45;5.40;1.00
35607;DHT22;21729;58.392;15.656;2023-04-25T05:49:14;5.50;1.00
35607;DHT22;21729;58.392;15.656;2023-04-25T05:51:42;5.50;1.00
35607;DHT22;21729;58.392;15.656;2023-04-25T05:54:11;5.50;1.00
35607;DHT22;21729;58.392;15.656;2023-04-25T05:56:42;5.70;1.00
35607;DHT22;21729;58.392;15.656;2023-04-25T05:59:10;5.80;1.00
35607;DHT22;21729;58.392;15.656;2023-04-25T06:01:41;5.70;1.00
35607;DHT22;21729;58.392;15.656;2023-04-25T06:04:11;5.70;1.00
35607;DHT22;21729;58.392;15.656;2023-04-25T06:06:39;5.80;1.00
35607;DHT22;21729;58.392;15.656;2023-04-25T06:09:06;5.80;1.00
35607;DHT22;21729;58.392;15.656;2023-04-25T06:11:34;5.90;1.00
35607;DHT22;21729;58.392;15.656;2023-04-25T06:14:03;6.00;1.00
35607;DHT22;21729;58.392;15.656;2023-04-25T06:16:30;6.00;1.00
35607;DHT22;21729;58.392;15.656;2023-04-25T06:18:58;5.90;1.00
35607;DHT22;21729;58.392;15.656;2023-04-25T06:21:26;5.90;1.00
35607;DHT22;21729;58.392;15.656;2023-04-25T06:23:54;5.90;1.00
35607;DHT22;21729;58.392;15.656;2023-04-25T06:26:22;5.90;1.00
35607;DHT22;21729;58.392;15.656;2023-04-25T06:28:49;6.00;1.00
35607;DHT22;21729;58.392;15.656;2023-04-25T06:31:18;6.00;1.00
35607;DHT22;21729;58.392;15.656;2023-04-25T06:33:45;6.10;1.00
35607;DHT22;21729;58.392;15.656;2023-04-25T06:36:14;6.10;1.00
35607;DHT22;21729;58.392;15.656;2023-04-25T06:38:41;6.20;1.00
35607;DHT22;21729;58.392;15.656;2023-04-25T06:41:10;6.30;1.00
35607;DHT22;21729;58.392;15.656;2023-04-25T06:43:38;6.40;1.00
35607;DHT22;21729;58.392;15.656;2023-04-25T06:46:05;6.30;1.00
35607;DHT22;21729;58.392;15.656;2023-04-25T06:48:35;6.40;1.00
35607;DHT22;21729;58.392;15.656;2023-04-25T06:51:04;6.50;1.00
35607;DHT22;21729;58.392;15.656;2023-04-25T06:53:32;6.50;1.00
35607;DHT22;21729;58.392;15.656;2023-04-25T06:56:00;6.60;1.00
35607;DHT22;21729;58.392;15.656;2023-04-25T06:58:29;6.50;1.00
35607;DHT22;21729;58.392;15.656;2023-04-25T07:00:57;6.70;1.00
35607;DHT22;21729;58.392;15.656;2023-04-25T07:03:26;6.80;1.00
35607;DHT22;21729;58.392;15.656;2023-04-25T07:05:57;6.90;1.00
35607;DHT22;21729;58.392;15.656;2023-04-25T07:08:30;7.10;1.00
35607;DHT22;21729;58.392;15.656;2023-04-25T07:10:57;7.00;99.90
35607;DHT22;21729;58.392;15.656;2023-04-25T07:13:24;7.00;99.90
35607;DHT22;21729;58.392;15.656;2023-04-25T07:15:52;6.90;99.90
35607;DHT22;21729;58.392;15.656;2023-04-25T07:18:20;7.00;99.90
35607;DHT22;21729;58.392;15.656;2023-04-25T07:20:47;6.90;99.90
35607;DHT22;21729;58.392;15.656;2023-04-25T07:23:16;7.10;99.90
35607;DHT22;21729;58.392;15.656;2023-04-25T07:25:43;7.20;99.90
35607;DHT22;21729;58.392;15.656;2023-04-25T07:28:11;7.30;99.90
35607;DHT22;21729;58.392;15.656;2023-04-25T07:30:39;7.40;99.90
35607;DHT22;21729;58.392;15.656;2023-04-25T07:33:06;7.30;99.90
35607;DHT22;21729;58.392;15.656;2023-04-25T07:35:34;7.30;99.90
35607;DHT22;21729;58.392;15.656;2023-04-25T07:38:02;7.40;99.90
35607;DHT22;21729;58.392;15.656;2023-04-25T07:40:31;7.40;99.90
35607;DHT22;21729;58.392;15.656;2023-04-25T07:42:59;7.60;99.90
35607;DHT22;21729;58.392;15.656;2023-04-25T07:45:26;7.80;99.90
35607;DHT22;21729;58.392;15.656;2023-04-25T07:47:55;7.90;99.90
35607;DHT22;21729;58.392;15.656;2023-04-25T07:50:23;7.80;99.90
35607;DHT22;21729;58.392;15.656;2023-04-25T07:52:51;7.90;99.90
35607;DHT22;21729;58.392;15.656;2023-04-25T07:55:18;8.00;99.90
35607;DHT22;21729;58.392;15.656;2023-04-25T07:57:48;8.00;99.90
35607;DHT22;21729;58.392;15.656;2023-04-25T08:00:17;8.00;99.90
35607;DHT22;21729;58.392;15.656;2023-04-25T08:02:45;8.10;99.90
35607;DHT22;21729;58.392;15.656;2023-04-25T08:05:12;8.20;99.90
35607;DHT22;21729;58.392;15.656;2023-04-25T08:07:40;8.20;99.90
35607;DHT22;21729;58.392;15.656;2023-04-25T08:10:10;8.20;99.90
35607;DHT22;21729;58.392;15.656;2023-04-25T08:12:38;8.30;99.90
35607;DHT22;21729;58.392;15.656;2023-04-25T08:15:08;8.40;99.90
35607;DHT22;21729;58.392;15.656;2023-04-25T08:17:35;8.30;99.90
35607;DHT22;21729;58.392;15.656;2023-04-25T08:20:03;8.30;99.90
35607;DHT22;21729;58.392;15.656;2023-04-25T08:22:32;8.40;99.90
35607;DHT22;21729;58.392;15.656;2023-04-25T08:24:59;8.30;99.90
35607;DHT22;21729;58.392;15.656;2023-04-25T08:27:27;8.60;99.90
35607;DHT22;21729;58.392;15.656;2023-04-25T08:29:54;8.60;99.90
35607;DHT22;21729;58.392;15.656;2023-04-25T08:32:23;8.60;99.90
35607;DHT22;21729;58.392;15.656;2023-04-25T08:34:51;8.70;99.90
35607;DHT22;21729;58.392;15.656;2023-04-25T08:37:19;8.60;99.90
35607;DHT22;21729;58.392;15.656;2023-04-25T08:39:47;8.70;99.90
35607;DHT22;21729;58.392;15.656;2023-04-25T08:42:17;8.90;99.90
35607;DHT22;21729;58.392;15.656;2023-04-25T08:44:45;8.80;99.90
35607;DHT22;21729;58.392;15.656;2023-04-25T08:47:12;8.70;99.90
35607;DHT22;21729;58.392;15.656;2023-04-25T08:49:45;8.90;99.90
35607;DHT22;21729;58.392;15.656;2023-04-25T08:52:14;8.90;99.90
35607;DHT22;21729;58.392;15.656;2023-04-25T08:54:42;9.10;99.90
35607;DHT22;21729;58.392;15.656;2023-04-25T08:57:11;9.20;99.90
35607;DHT22;21729;58.392;15.656;2023-04-25T08:59:41;9.30;99.90
35607;DHT22;21729;58.392;15.656;2023-04-25T09:02:11;9.50;99.90
35607;DHT22;21729;58.392;15.656;2023-04-25T09:04:44;9.50;99.90
35607;DHT22;21729;58.392;15.656;2023-04-25T09:07:12;9.60;99.90
35607;DHT22;21729;58.392;15.656;2023-04-25T09:09:42;9.70;99.90
35607;DHT22;21729;58.392;15.656;2023-04-25T09:12:10;9.70;99.90
35607;DHT22;21729;58.392;15.656;2023-04-25T09:14:38;9.30;99.90
35607;DHT22;21729;58.392;15.656;2023-04-25T09:17:05;9.30;99.90
35607;DHT22;21729;58.392;15.656;2023-04-25T09:19:36;9.20;99.90
35607;DHT22;21729;58.392;15.656;2023-04-25T09:22:07;9.20;99.90
35607;DHT22;21729;58.392;15.656;2023-04-25T09:24:35;9.30;99.90
35607;DHT22;21729;58.392;15.656;2023-04-25T09:27:07;9.40;99.90
35607;DHT22;21729;58.392;15.656;2023-04-25T09:29:35;9.40;99.90
35607;DHT22;21729;58.392;15.656;2023-04-25T09:32:16;9.50;99.90
35607;DHT22;21729;58.392;15.656;2023-04-25T09:34:44;9.60;99.90
35607;DHT22;21729;58.392;15.656;2023-04-25T09:37:19;9.70;99.90
35607;DHT22;21729;58.392;15.656;2023-04-25T09:39:47;9.70;99.90
35607;DHT22;21729;58.392;15.656;2023-04-25T09:42:15;9.70;99.90
35607;DHT22;21729;58.392;15.656;2023-04-25T09:44:44;9.80;99.90
35607;DHT22;21729;58.392;15.656;2023-04-25T09:47:12;9.70;99.90
35607;DHT22;21729;58.392;15.656;2023-04-25T09:49:44;9.70;99.90
35607;DHT22;21729;58.392;15.656;2023-04-25T09:52:14;9.60;99.90
35607;DHT22;21729;58.392;15.656;2023-04-25T09:54:44;9.80;99.90
35607;DHT22;21729;58.392;15.656;2023-04-25T09:57:13;10.00;99.90
35607;DHT22;21729;58.392;15.656;2023-04-25T09:59:44;9.90;99.90
35607;DHT22;21729;58.392;15.656;2023-04-25T10:02:13;10.10;99.90
35607;DHT22;21729;58.392;15.656;2023-04-25T10:04:42;10.00;99.90
35607;DHT22;21729;58.392;15.656;2023-04-25T10:07:12;10.00;99.90
35607;DHT22;21729;58.392;15.656;2023-04-25T10:09:40;9.90;99.90
35607;DHT22;21729;58.392;15.656;2023-04-25T10:12:09;9.80;99.90
35607;DHT22;21729;58.392;15.656;2023-04-25T10:14:38;9.70;99.90
35607;DHT22;21729;58.392;15.656;2023-04-25T10:17:08;9.30;99.90
35607;DHT22;21729;58.392;15.656;2023-04-25T10:19:37;9.50;99.90
35607;DHT22;21729;58.392;15.656;2023-04-25T10:22:08;9.60;99.90
35607;DHT22;21729;58.392;15.656;2023-04-25T10:24:38;9.70;99.90
35607;DHT22;21729;58.392;15.656;2023-04-25T10:27:06;9.80;99.90
35607;DHT22;21729;58.392;15.656;2023-04-25T10:29:35;9.70;99.90
35607;DHT22;21729;58.392;15.656;2023-04-25T10:32:03;9.80;99.90
35607;DHT22;21729;58.392;15.656;2023-04-25T10:34:41;9.70;99.90
35607;DHT22;21729;58.392;15.656;2023-04-25T10:37:11;9.60;99.90
35607;DHT22;21729;58.392;15.656;2023-04-25T10:39:40;9.40;99.90
35607;DHT22;21729;58.392;15.656;2023-04-25T10:42:07;9.40;99.90
35607;DHT22;21729;58.392;15.656;2023-04-25T10:44:37;9.30;99.90
35607;DHT22;21729;58.392;15.656;2023-04-25T10:47:07;9.10;99.90
35607;DHT22;21729;58.392;15.656;2023-04-25T10:49:36;9.00;99.90
35607;DHT22;21729;58.392;15.656;2023-04-25T10:52:17;9.10;99.90
35607;DHT22;21729;58.392;15.656;2023-04-25T10:54:48;9.10;99.90
35607;DHT22;21729;58.392;15.656;2023-04-25T10:57:31;9.20;99.90
35607;DHT22;21729;58.392;15.656;2023-04-25T11:00:06;9.20;99.90
35607;DHT22;21729;58.392;15.656;2023-04-25T11:02:44;9.00;99.90
35607;DHT22;21729;58.392;15.656;2023-04-25T11:05:27;9.10;99.90
35607;DHT22;21729;58.392;15.656;2023-04-25T11:07:56;9.10;99.90
35607;DHT22;21729;58.392;15.656;2023-04-25T11:10:29;9.10;99.90
35607;DHT22;21729;58.392;15.656;2023-04-25T11:12:56;9.20;99.90
35607;DHT22;21729;58.392;15.656;2023-04-25T11:15:25;9.20;99.90
35607;DHT22;21729;58.392;15.656;2023-04-25T11:17:56;9.20;99.90
35607;DHT22;21729;58.392;15.656;2023-04-25T11:20:25;9.20;99.90
35607;DHT22;21729;58.392;15.656;2023-04-25T11:22:54;9.30;99.90
35607;DHT22;21729;58.392;15.656;2023-04-25T11:25:24;9.50;99.90
35607;DHT22;21729;58.392;15.656;2023-04-25T11:27:53;9.80;99.90
35607;DHT22;21729;58.392;15.656;2023-04-25T11:30:24;9.90;99.90
35607;DHT22;21729;58.392;15.656;2023-04-25T11:32:51;10.00;99.90
35607;DHT22;21729;58.392;15.656;2023-04-25T11:35:19;10.30;99.90
35607;DHT22;21729;58.392;15.656;2023-04-25T11:37:49;10.60;99.90
35607;DHT22;21729;58.392;15.656;2023-04-25T11:40:16;10.50;88.80
35607;DHT22;21729;58.392;15.656;2023-04-25T11:42:45;10.60;68.20
35607;DHT22;21729;58.392;15.656;2023-04-25T11:45:13;10.60;99.90
35607;DHT22;21729;58.392;15.656;2023-04-25T11:47:43;10.80;28.50
35607;DHT22;21729;58.392;15.656;2023-04-25T11:50:10;11.00;96.20
35607;DHT22;21729;58.392;15.656;2023-04-25T11:52:40;10.90;43.40
35607;DHT22;21729;58.392;15.656;2023-04-25T11:55:09;10.80;14.70
35607;DHT22;21729;58.392;15.656;2023-04-25T11:57:39;10.90;1.00
35607;DHT22;21729;58.392;15.656;2023-04-25T12:00:09;10.90;7.80
35607;DHT22;21729;58.392;15.656;2023-04-25T12:02:40;11.10;1.00
35607;DHT22;21729;58.392;15.656;2023-04-25T12:05:11;11.30;1.00
35607;DHT22;21729;58.392;15.656;2023-04-25T12:07:38;11.20;1.00
35607;DHT22;21729;58.392;15.656;2023-04-25T12:10:09;11.30;15.30
35607;DHT22;21729;58.392;15.656;2023-04-25T12:12:38;11.20;1.00
35607;DHT22;21729;58.392;15.656;2023-04-25T12:15:12;11.20;1.00
35607;DHT22;21729;58.392;15.656;2023-04-25T12:17:42;11.20;1.00
35607;DHT22;21729;58.392;15.656;2023-04-25T12:20:15;11.10;1.00
35607;DHT22;21729;58.392;15.656;2023-04-25T12:22:45;10.70;1.00
35607;DHT22;21729;58.392;15.656;2023-04-25T12:25:17;10.60;1.00
35607;DHT22;21729;58.392;15.656;2023-04-25T12:28:21;10.50;8.50
35607;DHT22;21729;58.392;15.656;2023-04-25T12:30:57;10.20;99.90
35607;DHT22;21729;58.392;15.656;2023-04-25T12:33:26;10.20;99.90
35607;DHT22;21729;58.392;15.656;2023-04-25T12:35:56;10.10;99.90
35607;DHT22;21729;58.392;15.656;2023-04-25T12:38:25;10.00;99.90
35607;DHT22;21729;58.392;15.656;2023-04-25T12:40:53;9.90;99.90
35607;DHT22;21729;58.392;15.656;2023-04-25T12:43:21;10.00;99.90
35607;DHT22;21729;58.392;15.656;2023-04-25T12:45:48;9.90;99.90
35607;DHT22;21729;58.392;15.656;2023-04-25T12:48:16;9.90;99.90
35607;DHT22;21729;58.392;15.656;2023-04-25T12:50:44;10.00;99.90
35607;DHT22;21729;58.392;15.656;2023-04-25T12:53:15;10.00;99.90
35607;DHT22;21729;58.392;15.656;2023-04-25T12:55:42;9.90;99.90
35607;DHT22;21729;58.392;15.656;2023-04-25T12:58:11;10.00;99.90
35607;DHT22;21729;58.392;15.656;2023-04-25T13:00:39;10.10;99.90
35607;DHT22;21729;58.392;15.656;2023-04-25T13:03:06;10.20;99.90
35607;DHT22;21729;58.392;15.656;2023-04-25T13:05:34;10.40;99.90
35607;DHT22;21729;58.392;15.656;2023-04-25T13:08:01;10.50;99.90
35607;DHT22;21729;58.392;15.656;2023-04-25T13:10:31;10.60;99.90
35607;DHT22;21729;58.392;15.656;2023-04-25T13:12:59;10.50;99.90
35607;DHT22;21729;58.392;15.656;2023-04-25T13:15:28;10.40;99.90
35607;DHT22;21729;58.392;15.656;2023-04-25T13:17:55;10.50;99.90
35607;DHT22;21729;58.392;15.656;2023-04-25T13:20:23;10.60;71.20
35607;DHT22;21729;58.392;15.656;2023-04-25T13:22:50;10.60;99.90
35607;DHT22;21729;58.392;15.656;2023-04-25T13:25:17;10.50;93.60
35607;DHT22;21729;58.392;15.656;2023-04-25T13:27:52;10.60;99.90
35607;DHT22;21729;58.392;15.656;2023-04-25T13:30:19;10.60;99.90
35607;DHT22;21729;58.392;15.656;2023-04-25T13:32:46;10.60;99.90
35607;DHT22;21729;58.392;15.656;2023-04-25T13:35:14;10.60;99.90
35607;DHT22;21729;58.392;15.656;2023-04-25T13:37:41;10.50;55.10
35607;DHT22;21729;58.392;15.656;2023-04-25T13:40:10;10.30;35.20
35607;DHT22;21729;58.392;15.656;2023-04-25T13:42:38;10.30;44.80
35607;DHT22;21729;58.392;15.656;2023-04-25T13:45:08;10.30;99.90
35607;DHT22;21729;58.392;15.656;2023-04-25T13:47:36;10.20;78.90
35607;DHT22;21729;58.392;15.656;2023-04-25T13:50:05;10.30;99.90
35607;DHT22;21729;58.392;15.656;2023-04-25T13:52:33;10.40;99.90
35607;DHT22;21729;58.392;15.656;2023-04-25T13:55:00;10.50;86.80
35607;DHT22;21729;58.392;15.656;2023-04-25T13:57:30;10.40;99.90
35607;DHT22;21729;58.392;15.656;2023-04-25T13:59:58;10.50;83.80
35607;DHT22;21729;58.392;15.656;2023-04-25T14:02:31;10.60;37.70
35607;DHT22;21729;58.392;15.656;2023-04-25T14:04:59;10.70;17.30
35607;DHT22;21729;58.392;15.656;2023-04-25T14:07:27;10.80;85.80
35607;DHT22;21729;58.392;15.656;2023-04-25T14:09:56;10.90;2.30
35607;DHT22;21729;58.392;15.656;2023-04-25T14:12:24;10.90;18.50
35607;DHT22;21729;58.392;15.656;2023-04-25T14:14:53;11.00;55.70
35607;DHT22;21729;58.392;15.656;2023-04-25T14:17:20;11.20;99.90
35607;DHT22;21729;58.392;15.656;2023-04-25T14:19:50;11.30;3.40
35607;DHT22;21729;58.392;15.656;2023-04-25T14:22:17;11.40;1.00
35607;DHT22;21729;58.392;15.656;2023-04-25T14:24:45;11.40;1.00
35607;DHT22;21729;58.392;15.656;2023-04-25T14:27:18;11.10;1.00
35607;DHT22;21729;58.392;15.656;2023-04-25T14:29:45;11.10;5.40
35607;DHT22;21729;58.392;15.656;2023-04-25T14:32:13;11.20;1.00
35607;DHT22;21729;58.392;15.656;2023-04-25T14:34:41;11.00;1.00
35607;DHT22;21729;58.392;15.656;2023-04-25T14:37:11;11.10;1.00
35607;DHT22;21729;58.392;15.656;2023-04-25T14:39:41;11.10;1.00
35607;DHT22;21729;58.392;15.656;2023-04-25T14:42:10;11.20;1.00
35607;DHT22;21729;58.392;15.656;2023-04-25T14:44:38;11.00;1.90
35607;DHT22;21729;58.392;15.656;2023-04-25T14:47:06;10.90;1.00
35607;DHT22;21729;58.392;15.656;2023-04-25T14:49:34;11.00;1.00
35607;DHT22;21729;58.392;15.656;2023-04-25T14:52:04;10.90;67.10
35607;DHT22;21729;58.392;15.656;2023-04-25T14:54:36;10.90;95.40
35607;DHT22;21729;58.392;15.656;2023-04-25T14:57:03;10.90;1.00
35607;DHT22;21729;58.392;15.656;2023-04-25T14:59:31;10.80;13.60
35607;DHT22;21729;58.392;15.656;2023-04-25T15:01:59;10.80;18.20
35607;DHT22;21729;58.392;15.656;2023-04-25T15:04:27;10.70;26.00
35607;DHT22;21729;58.392;15.656;2023-04-25T15:06:56;10.70;69.20
35607;DHT22;21729;58.392;15.656;2023-04-25T15:09:23;10.50;99.90
35607;DHT22;21729;58.392;15.656;2023-04-25T15:11:52;10.50;87.50
35607;DHT22;21729;58.392;15.656;2023-04-25T15:14:21;10.50;96.30
35607;DHT22;21729;58.392;15.656;2023-04-25T15:16:50;10.30;99.90
35607;DHT22;21729;58.392;15.656;2023-04-25T15:19:20;10.40;99.90
35607;DHT22;21729;58.392;15.656;2023-04-25T15:21:48;10.30;99.90
35607;DHT22;21729;58.392;15.656;2023-04-25T15:24:16;10.30;99.90
35607;DHT22;21729;58.392;15.656;2023-04-25T15:26:44;10.30;99.90
35607;DHT22;21729;58.392;15.656;2023-04-25T15:29:13;10.20;99.90
35607;DHT22;21729;58.392;15.656;2023-04-25T15:31:42;10.20;99.90
35607;DHT22;21729;58.392;15.656;2023-04-25T15:34:11;10.20;99.90
35607;DHT22;21729;58.392;15.656;2023-04-25T15:36:39;10.20;99.90
35607;DHT22;21729;58.392;15.656;2023-04-25T15:39:07;10.20;99.90
35607;DHT22;21729;58.392;15.656;2023-04-25T15:41:39;10.20;99.90
35607;DHT22;21729;58.392;15.656;2023-04-25T15:44:07;10.10;99.90